Terminal Aerodrome Forecast
Issued by NWS Upton, NY

Home | Current Version | Previous Version | Text Only | Print | Product List | Glossary On
Versions: 1 2 3 4 5 6 7 8 9 10 11 12 13 14 15 16 17 18 19 20 21 22 23 24 25 26 27 28 29 30 31
095
FTUS41 KOKX 230318 AAB
TAFISP
TAF AMD
KISP 230318Z 2303/2324 09005KT 1/2SM FG OVC002
      TEMPO 2303/2305 1/4SM FG
     FM230500 12005KT 1/4SM FG VV002 WS020/20035KT
      TEMPO 2305/2309 1SM BR SCT002 BKN090
     FM230900 16008KT 1/2SM FG VCSH OVC002 WS020/20040KT
     FM231100 17010G19KT 2SM -SHRA BR OVC005 WS020/20045KT
     FM231300 17012G20KT 3SM SHRA BR OVC008 WS020/20050KT
     FM231500 18017G26KT 3SM SHRA BR OVC010 WS020/20060KT
     FM232100 22014G22KT 4SM BR VCSH SCT010 BKN050
     FM232300 26010KT P6SM SCT070=

USA.gov is the U.S. government's official web portal to all federal, state and local government web resources and services.